createdAt,value
2019-05-06T00:00:58.365Z,8.50
2019-05-06T00:03:24.811Z,8.50
2019-05-06T00:05:54.278Z,8.50
2019-05-06T00:08:23.668Z,8.60
2019-05-06T00:10:54.276Z,8.50
2019-05-06T00:13:24.138Z,8.50
2019-05-06T00:15:54.361Z,8.40
2019-05-06T00:18:24.534Z,8.30
2019-05-06T00:20:57.220Z,8.30
2019-05-06T00:23:28.353Z,8.40
2019-05-06T00:26:01.427Z,8.40
2019-05-06T00:28:33.824Z,8.40
2019-05-06T00:31:12.342Z,8.40
2019-05-06T00:33:34.189Z,8.50
2019-05-06T00:36:04.717Z,8.50
2019-05-06T00:38:34.004Z,8.40
2019-05-06T00:41:04.816Z,8.50
2019-05-06T00:43:34.489Z,8.40
2019-05-06T00:46:04.689Z,8.40
2019-05-06T00:48:34.092Z,8.30
2019-05-06T00:51:04.491Z,8.40
2019-05-06T00:53:44.106Z,8.50
2019-05-06T00:56:14.006Z,8.50
2019-05-06T00:58:43.570Z,8.60
2019-05-06T01:01:24.123Z,8.70
2019-05-06T01:03:44.239Z,8.80
2019-05-06T01:06:14.235Z,8.80
2019-05-06T01:08:44.082Z,8.70
2019-05-06T01:11:15.372Z,8.80
2019-05-06T01:13:51.875Z,8.70
2019-05-06T01:16:21.368Z,8.80
2019-05-06T01:18:50.173Z,8.80
2019-05-06T01:21:18.963Z,8.70
2019-05-06T01:23:49.167Z,8.70
2019-05-06T01:26:17.903Z,8.70
2019-05-06T01:28:46.706Z,8.70
2019-05-06T01:31:15.537Z,8.70
2019-05-06T01:33:45.248Z,8.60
2019-05-06T01:36:14.341Z,8.60
2019-05-06T01:38:45.111Z,8.60
2019-05-06T01:41:15.415Z,8.60
2019-05-06T01:43:45.443Z,8.60
2019-05-06T01:46:14.286Z,8.50
2019-05-06T01:48:48.650Z,8.50
2019-05-06T01:51:19.918Z,8.50
2019-05-06T01:53:49.797Z,8.40
2019-05-06T01:56:18.619Z,8.50
2019-05-06T01:58:47.401Z,8.50
2019-05-06T02:01:16.200Z,8.50
2019-05-06T02:03:45.004Z,8.60
2019-05-06T02:06:14.250Z,8.60
2019-05-06T02:08:44.784Z,8.50
2019-05-06T02:11:14.824Z,8.40
2019-05-06T02:13:44.524Z,8.40
2019-05-06T02:16:14.653Z,8.50
2019-05-06T02:18:44.907Z,8.50
2019-05-06T02:21:23.856Z,8.50
2019-05-06T02:23:53.587Z,8.50
2019-05-06T02:26:23.882Z,8.60
2019-05-06T02:28:54.637Z,8.60
2019-05-06T02:31:41.436Z,8.60
2019-05-06T02:34:11.729Z,8.70
2019-05-06T02:36:50.852Z,8.60
2019-05-06T02:39:19.496Z,8.60
2019-05-06T02:41:48.200Z,8.60
2019-05-06T02:44:16.877Z,8.50
2019-05-06T02:46:47.173Z,8.50
2019-05-06T02:49:17.465Z,8.50
2019-05-06T02:51:46.120Z,8.40
2019-05-06T02:54:14.920Z,8.40
2019-05-06T02:56:43.774Z,8.40
2019-05-06T02:59:12.933Z,8.40
2019-05-06T03:01:43.264Z,8.40
2019-05-06T03:04:13.217Z,8.40
2019-05-06T03:06:44.644Z,8.40
2019-05-06T03:09:13.447Z,8.40
2019-05-06T03:11:43.843Z,8.40
2019-05-06T03:14:13.938Z,8.40
2019-05-06T03:16:43.988Z,8.40
2019-05-06T03:19:13.517Z,8.30
2019-05-06T03:21:46.620Z,8.30
2019-05-06T03:24:17.005Z,8.30
2019-05-06T03:26:45.797Z,8.40
2019-05-06T03:29:14.491Z,8.30
2019-05-06T03:31:46.413Z,8.30
2019-05-06T03:34:36.545Z,8.30
2019-05-06T03:36:48.710Z,8.30
2019-05-06T03:39:14.184Z,8.30
2019-05-06T03:41:43.709Z,8.40
2019-05-06T03:44:16.337Z,8.30
2019-05-06T03:47:05.238Z,8.40
2019-05-06T03:49:33.813Z,8.40
2019-05-06T03:52:02.942Z,8.30
2019-05-06T03:54:34.274Z,8.30
2019-05-06T03:57:04.385Z,8.20
2019-05-06T03:59:34.273Z,8.20
2019-05-06T04:02:05.176Z,8.20
2019-05-06T04:04:33.466Z,8.20
2019-05-06T04:07:03.424Z,8.20
2019-05-06T04:09:36.387Z,8.10
2019-05-06T04:12:03.738Z,8.10
2019-05-06T04:14:34.002Z,8.10
2019-05-06T04:17:07.343Z,8.10
2019-05-06T04:19:38.183Z,8.10
2019-05-06T04:22:26.763Z,8.10
2019-05-06T04:24:57.230Z,8.20
2019-05-06T04:27:33.307Z,8.20
2019-05-06T04:30:04.318Z,8.20
2019-05-06T04:32:34.111Z,8.20
2019-05-06T04:35:04.396Z,8.20
2019-05-06T04:37:33.844Z,8.20
2019-05-06T04:40:04.509Z,8.20
2019-05-06T04:42:34.514Z,8.20
2019-05-06T04:45:04.714Z,8.20
2019-05-06T04:47:33.732Z,8.30
2019-05-06T04:50:04.960Z,8.30
2019-05-06T04:52:34.176Z,8.40
2019-05-06T04:55:06.302Z,8.40
2019-05-06T04:57:35.097Z,8.30
2019-05-06T05:00:06.024Z,8.30
2019-05-06T05:02:34.817Z,8.40
2019-05-06T05:05:04.446Z,8.50
2019-05-06T05:07:33.618Z,8.50
2019-05-06T05:10:04.453Z,8.60
2019-05-06T05:12:37.592Z,8.60
2019-05-06T05:15:12.006Z,8.60
2019-05-06T05:17:58.586Z,8.70
2019-05-06T05:20:37.019Z,8.60
2019-05-06T05:22:58.323Z,8.60
2019-05-06T05:25:27.544Z,8.70
2019-05-06T05:27:56.358Z,8.70
2019-05-06T05:30:25.024Z,8.80
2019-05-06T05:32:53.762Z,8.80
2019-05-06T05:35:22.708Z,8.80
2019-05-06T05:37:52.908Z,8.80
2019-05-06T05:40:23.313Z,8.80
2019-05-06T05:43:00.048Z,8.90
2019-05-06T05:45:28.863Z,9.00
2019-05-06T05:47:59.508Z,9.20
2019-05-06T05:50:32.682Z,9.20
2019-05-06T05:53:03.824Z,9.40
2019-05-06T05:55:33.017Z,9.50
2019-05-06T05:58:03.190Z,9.60
2019-05-06T06:00:33.806Z,9.60
2019-05-06T06:03:02.964Z,9.70
2019-05-06T06:05:32.971Z,9.70
2019-05-06T06:08:02.973Z,9.70
2019-05-06T06:10:48.311Z,9.80
2019-05-06T06:13:18.998Z,10.00
2019-05-06T06:15:55.670Z,10.10
2019-05-06T06:18:35.150Z,10.10
2019-05-06T06:21:17.584Z,10.10
2019-05-06T06:23:38.695Z,10.20
2019-05-06T06:26:07.495Z,10.30
2019-05-06T06:28:36.335Z,10.50
2019-05-06T06:31:09.576Z,10.60
2019-05-06T06:33:38.386Z,10.60
2019-05-06T06:36:08.817Z,10.70
2019-05-06T06:38:39.273Z,10.80
2019-05-06T06:41:12.122Z,10.80
2019-05-06T06:43:42.891Z,10.90
2019-05-06T06:46:12.626Z,10.90
2019-05-06T06:48:43.064Z,10.80
2019-05-06T06:51:12.417Z,10.60
2019-05-06T06:53:42.100Z,10.50
2019-05-06T06:56:28.926Z,10.60
2019-05-06T06:59:02.566Z,10.70
2019-05-06T07:01:36.506Z,10.80
2019-05-06T07:04:10.514Z,10.80
2019-05-06T07:06:38.600Z,10.80
2019-05-06T07:09:07.794Z,10.90
2019-05-06T07:11:36.527Z,10.90
2019-05-06T07:14:05.323Z,10.90
2019-05-06T07:16:34.096Z,11.00
2019-05-06T07:19:03.155Z,11.10
2019-05-06T07:21:43.567Z,11.20
2019-05-06T07:24:13.138Z,11.20
2019-05-06T07:26:43.558Z,11.10
2019-05-06T07:29:21.494Z,11.20
2019-05-06T07:31:42.786Z,11.50
2019-05-06T07:34:12.017Z,11.70
2019-05-06T07:36:42.974Z,11.90
2019-05-06T07:39:15.375Z,11.90
2019-05-06T07:41:53.493Z,11.90
2019-05-06T07:44:24.202Z,12.00
2019-05-06T07:47:03.317Z,11.90
2019-05-06T07:49:32.925Z,12.30
2019-05-06T07:52:02.882Z,12.50
2019-05-06T07:54:32.995Z,12.60
2019-05-06T07:57:02.386Z,12.60
2019-05-06T07:59:33.395Z,12.80
2019-05-06T08:02:02.354Z,13.00
2019-05-06T08:04:32.424Z,12.90
2019-05-06T08:07:03.085Z,13.00
2019-05-06T08:09:32.571Z,13.30
2019-05-06T08:12:02.799Z,13.40
2019-05-06T08:14:33.846Z,13.50
2019-05-06T08:17:04.552Z,13.60
2019-05-06T08:19:33.735Z,13.60
2019-05-06T08:22:04.307Z,13.60
2019-05-06T08:24:33.312Z,13.70
2019-05-06T08:27:02.848Z,13.80
2019-05-06T08:29:33.092Z,13.80
2019-05-06T08:32:02.985Z,13.80
2019-05-06T08:34:34.094Z,13.70
2019-05-06T08:37:04.186Z,13.70
2019-05-06T08:39:32.911Z,13.80
2019-05-06T08:42:02.633Z,14.30
2019-05-06T08:44:34.396Z,14.70
2019-05-06T08:47:03.128Z,15.00
2019-05-06T08:49:33.446Z,15.10
2019-05-06T08:52:03.740Z,15.20
2019-05-06T08:54:36.680Z,15.30
2019-05-06T08:57:05.404Z,15.20
2019-05-06T08:59:34.101Z,15.30
2019-05-06T09:02:03.823Z,15.60
2019-05-06T09:04:32.550Z,15.60
2019-05-06T09:07:02.950Z,15.10
2019-05-06T09:09:32.540Z,15.20
2019-05-06T09:12:02.662Z,15.30
2019-05-06T09:14:32.686Z,15.80
2019-05-06T09:17:02.884Z,16.10
2019-05-06T09:19:33.237Z,15.80
2019-05-06T09:22:02.591Z,15.90
2019-05-06T09:24:32.098Z,15.60
2019-05-06T09:27:02.973Z,15.40
2019-05-06T09:29:33.535Z,15.70
2019-05-06T09:32:14.016Z,15.60
2019-05-06T09:34:44.403Z,15.60
2019-05-06T09:37:15.741Z,15.60
2019-05-06T09:39:47.362Z,15.50
2019-05-06T09:42:16.707Z,15.50
2019-05-06T09:44:50.250Z,15.80
2019-05-06T09:47:34.972Z,16.10
2019-05-06T09:50:05.439Z,16.00
2019-05-06T09:52:34.103Z,16.00
2019-05-06T09:55:07.040Z,16.00
2019-05-06T09:57:46.224Z,16.10
2019-05-06T10:00:16.889Z,16.40
2019-05-06T10:02:49.307Z,17.00
2019-05-06T10:05:16.048Z,17.70
2019-05-06T10:07:44.889Z,18.30
2019-05-06T10:10:13.718Z,19.10
2019-05-06T10:12:42.416Z,19.50
2019-05-06T10:15:12.734Z,19.80
2019-05-06T10:17:42.858Z,19.90
2019-05-06T10:20:12.794Z,19.90
2019-05-06T10:22:43.071Z,20.20
2019-05-06T10:25:16.360Z,21.10
2019-05-06T10:27:47.829Z,21.70
2019-05-06T10:30:17.401Z,21.20
2019-05-06T10:32:47.780Z,20.90
2019-05-06T10:35:17.075Z,21.60
2019-05-06T10:38:12.384Z,21.70
2019-05-06T10:40:59.646Z,21.80
2019-05-06T10:43:18.006Z,21.30
2019-05-06T10:45:46.657Z,20.90
2019-05-06T10:48:15.403Z,20.70
2019-05-06T10:50:45.784Z,21.10
2019-05-06T10:53:16.253Z,21.40
2019-05-06T10:55:46.691Z,22.40
2019-05-06T10:58:15.427Z,23.50
2019-05-06T11:00:44.348Z,23.50
2019-05-06T11:03:15.115Z,23.40
2019-05-06T11:05:43.972Z,22.80
2019-05-06T11:08:12.741Z,22.20
2019-05-06T11:10:45.165Z,21.80
2019-05-06T11:13:12.877Z,21.60
2019-05-06T11:15:43.401Z,21.70
2019-05-06T11:18:13.567Z,22.40
2019-05-06T11:20:43.927Z,23.30
2019-05-06T11:23:14.222Z,23.40
2019-05-06T11:25:43.486Z,23.10
2019-05-06T11:28:30.328Z,23.20
2019-05-06T11:31:02.509Z,22.60
2019-05-06T11:33:33.019Z,23.00
2019-05-06T11:36:09.053Z,22.80
2019-05-06T11:38:37.712Z,22.50
2019-05-06T11:41:06.433Z,22.80
2019-05-06T11:43:35.093Z,22.70
2019-05-06T11:46:03.911Z,23.10
2019-05-06T11:48:32.912Z,23.30
2019-05-06T11:51:03.358Z,23.50
2019-05-06T11:53:32.586Z,23.00
2019-05-06T11:56:02.111Z,23.30
2019-05-06T11:58:52.876Z,22.90
2019-05-06T12:01:25.468Z,22.20
2019-05-06T12:03:54.280Z,22.30
2019-05-06T12:06:22.936Z,22.30
2019-05-06T12:08:52.414Z,23.40
2019-05-06T12:11:23.441Z,23.70
2019-05-06T12:13:53.282Z,23.70
2019-05-06T12:16:26.223Z,24.70
2019-05-06T12:18:53.059Z,25.00
2019-05-06T12:21:23.197Z,25.20
2019-05-06T12:23:53.757Z,24.80
2019-05-06T12:26:22.631Z,24.50
2019-05-06T12:28:53.131Z,24.50
2019-05-06T12:31:23.321Z,23.60
2019-05-06T12:33:53.351Z,22.90
2019-05-06T12:36:25.130Z,22.30
2019-05-06T12:38:59.430Z,22.80
2019-05-06T12:41:28.162Z,23.20
2019-05-06T12:43:56.811Z,23.00
2019-05-06T12:46:27.149Z,23.40
2019-05-06T12:48:55.884Z,23.80
2019-05-06T12:51:24.531Z,23.60
2019-05-06T12:53:53.854Z,23.00
2019-05-06T12:56:22.745Z,22.80
2019-05-06T12:58:52.625Z,22.90
2019-05-06T13:01:22.249Z,23.20
2019-05-06T13:03:52.613Z,23.90
2019-05-06T13:06:26.332Z,25.00
2019-05-06T13:09:01.089Z,25.10
2019-05-06T13:11:23.425Z,25.20
2019-05-06T13:14:00.318Z,25.50
2019-05-06T13:16:33.199Z,25.30
2019-05-06T13:19:03.092Z,24.80
2019-05-06T13:21:32.740Z,24.60
2019-05-06T13:24:08.846Z,24.70
2019-05-06T13:26:39.094Z,24.80
2019-05-06T13:29:09.895Z,24.90
2019-05-06T13:31:40.274Z,25.60
2019-05-06T13:34:12.228Z,25.60
2019-05-06T13:36:42.868Z,24.40
2019-05-06T13:39:15.040Z,24.10
2019-05-06T13:41:42.309Z,24.00
2019-05-06T13:44:13.474Z,24.50
2019-05-06T13:46:46.108Z,24.80
2019-05-06T13:49:23.144Z,24.70
2019-05-06T13:51:53.388Z,24.70
2019-05-06T13:54:22.325Z,24.80
2019-05-06T13:59:44.083Z,24.10
2019-05-06T14:02:27.015Z,24.30
2019-05-06T14:04:58.375Z,24.80
2019-05-06T14:07:27.266Z,25.80
2019-05-06T14:09:56.007Z,26.20
2019-05-06T14:12:25.525Z,25.40
2019-05-06T14:14:55.750Z,25.60
2019-05-06T14:17:24.962Z,25.80
2019-05-06T14:19:56.136Z,25.40
2019-05-06T14:22:26.282Z,25.00
2019-05-06T14:25:00.333Z,24.40
2019-05-06T14:27:32.971Z,24.20
2019-05-06T14:30:07.592Z,24.20
2019-05-06T14:32:36.331Z,24.40
2019-05-06T14:35:06.870Z,24.70
2019-05-06T14:37:35.586Z,23.90
2019-05-06T14:40:08.533Z,22.30
2019-05-06T14:42:37.483Z,22.50
2019-05-06T14:45:07.463Z,23.90
2019-05-06T14:47:42.298Z,24.20
2019-05-06T14:50:14.409Z,24.60
2019-05-06T14:52:42.616Z,24.50
2019-05-06T14:55:15.276Z,24.80
2019-05-06T14:57:43.690Z,25.00
2019-05-06T15:00:14.330Z,24.80
2019-05-06T15:02:43.049Z,24.40
2019-05-06T15:05:13.150Z,23.90
2019-05-06T15:07:42.211Z,23.90
2019-05-06T15:10:20.273Z,24.20
2019-05-06T15:12:42.671Z,24.20
2019-05-06T15:15:12.738Z,24.10
2019-05-06T15:17:43.020Z,23.90
2019-05-06T15:20:12.260Z,23.30
2019-05-06T15:22:42.045Z,22.40
2019-05-06T15:25:12.922Z,22.50
2019-05-06T15:27:42.607Z,23.50
2019-05-06T15:30:13.620Z,24.00
2019-05-06T15:32:42.350Z,24.20
2019-05-06T15:35:22.368Z,24.60
2019-05-06T15:38:02.254Z,23.70
2019-05-06T15:40:35.986Z,23.60
2019-05-06T15:43:04.370Z,24.30
2019-05-06T15:45:33.104Z,24.00
2019-05-06T15:48:02.664Z,24.40
2019-05-06T15:50:32.432Z,24.20
2019-05-06T15:53:02.010Z,24.00
2019-05-06T15:55:32.303Z,25.10
2019-05-06T15:58:03.271Z,25.50
2019-05-06T16:00:33.091Z,25.30
2019-05-06T16:03:01.943Z,25.50
2019-05-06T16:05:33.709Z,24.60
2019-05-06T16:08:02.799Z,23.80
2019-05-06T16:10:37.881Z,23.60
2019-05-06T16:13:02.318Z,24.30
2019-05-06T16:15:33.520Z,25.10
2019-05-06T16:18:02.418Z,25.60
2019-05-06T16:20:33.287Z,25.90
2019-05-06T16:23:03.691Z,25.60
2019-05-06T16:25:32.439Z,25.70
2019-05-06T16:28:02.251Z,24.80
2019-05-06T16:30:33.701Z,23.20
2019-05-06T16:33:03.964Z,22.60
2019-05-06T16:35:32.300Z,23.00
2019-05-06T16:38:02.347Z,24.00
2019-05-06T16:40:33.497Z,23.80
2019-05-06T16:43:02.046Z,24.10
2019-05-06T16:45:30.942Z,24.00
2019-05-06T16:47:59.581Z,23.90
2019-05-06T16:50:32.449Z,23.50
2019-05-06T16:53:02.614Z,24.00
2019-05-06T16:55:48.726Z,24.50
2019-05-06T16:58:19.136Z,24.20
2019-05-06T17:00:48.171Z,24.20
2019-05-06T17:03:18.766Z,23.90
2019-05-06T17:06:07.238Z,23.90
2019-05-06T17:08:36.622Z,23.50
2019-05-06T17:11:05.626Z,23.40
2019-05-06T17:13:37.585Z,23.10
2019-05-06T17:16:04.910Z,22.90
2019-05-06T17:18:33.553Z,22.70
2019-05-06T17:21:02.247Z,22.60
2019-05-06T17:23:32.362Z,22.80
2019-05-06T17:26:01.318Z,22.00
2019-05-06T17:28:33.498Z,20.90
2019-05-06T17:31:18.704Z,20.10
2019-05-06T17:34:07.037Z,19.50
2019-05-06T17:36:37.349Z,19.10
2019-05-06T17:39:10.900Z,18.80
2019-05-06T17:41:47.626Z,18.60
2019-05-06T17:44:12.021Z,18.30
2019-05-06T17:46:45.278Z,18.00
2019-05-06T17:49:15.653Z,17.80
2019-05-06T17:52:02.972Z,17.80
2019-05-06T17:54:32.513Z,17.70
2019-05-06T17:57:03.823Z,17.70
2019-05-06T17:59:33.150Z,17.40
2019-05-06T18:02:03.656Z,17.20
2019-05-06T18:04:34.918Z,17.20
2019-05-06T18:07:03.637Z,17.10
2019-05-06T18:09:33.448Z,17.00
2019-05-06T18:12:03.157Z,16.90
2019-05-06T18:14:33.157Z,17.00
2019-05-06T18:17:03.639Z,17.00
2019-05-06T18:19:33.514Z,17.10
2019-05-06T18:22:05.058Z,16.90
2019-05-06T18:24:35.247Z,16.80
2019-05-06T18:27:04.032Z,16.60
2019-05-06T18:29:33.642Z,16.60
2019-05-06T18:32:03.711Z,16.60
2019-05-06T18:34:33.202Z,16.50
2019-05-06T18:37:03.227Z,16.50
2019-05-06T18:39:33.698Z,16.50
2019-05-06T18:42:15.556Z,16.40
2019-05-06T18:44:33.456Z,16.30
2019-05-06T18:47:02.811Z,16.10
2019-05-06T18:49:33.619Z,16.00
2019-05-06T18:52:02.374Z,15.90
2019-05-06T18:54:33.626Z,15.90
2019-05-06T18:57:04.330Z,15.70
2019-05-06T18:59:33.033Z,15.60
2019-05-06T19:02:02.243Z,15.60
2019-05-06T19:04:33.510Z,15.60
2019-05-06T19:07:12.429Z,15.70
2019-05-06T19:09:34.546Z,15.70
2019-05-06T19:12:03.755Z,15.70
2019-05-06T19:14:33.313Z,15.70
2019-05-06T19:17:02.815Z,15.60
2019-05-06T19:19:34.226Z,15.50
2019-05-06T19:22:02.911Z,15.40
2019-05-06T19:24:33.606Z,15.30
2019-05-06T19:27:02.190Z,15.30
2019-05-06T19:29:32.735Z,15.30
2019-05-06T19:32:02.966Z,15.30
2019-05-06T19:34:34.543Z,15.20
2019-05-06T19:37:02.542Z,15.20
2019-05-06T19:39:32.943Z,15.20
2019-05-06T19:42:02.802Z,15.20
2019-05-06T19:44:32.214Z,15.20
2019-05-06T19:47:02.546Z,15.10
2019-05-06T19:49:32.783Z,15.00
2019-05-06T19:52:03.158Z,14.90
2019-05-06T19:54:33.019Z,14.90
2019-05-06T19:57:02.598Z,14.90
2019-05-06T19:59:33.099Z,14.80
2019-05-06T20:02:01.931Z,14.80
2019-05-06T20:04:33.099Z,14.70
2019-05-06T20:07:05.832Z,14.70
2019-05-06T20:09:42.657Z,14.70
2019-05-06T20:12:32.762Z,14.60
2019-05-06T20:15:19.478Z,14.60
2019-05-06T20:17:48.138Z,14.80
2019-05-06T20:20:16.945Z,14.90
2019-05-06T20:22:45.664Z,14.90
2019-05-06T20:25:14.461Z,14.90
2019-05-06T20:27:43.123Z,14.90
2019-05-06T20:30:12.058Z,14.80
2019-05-06T20:32:42.524Z,14.50
2019-05-06T20:35:13.009Z,14.40
2019-05-06T20:37:42.578Z,14.40
2019-05-06T20:40:14.530Z,14.40
2019-05-06T20:42:42.707Z,14.30
2019-05-06T20:45:12.815Z,14.20
2019-05-06T20:47:42.938Z,14.20
2019-05-06T20:50:13.224Z,14.20
2019-05-06T20:52:42.518Z,14.20
2019-05-06T20:55:15.885Z,14.20
2019-05-06T20:57:42.465Z,14.20
2019-05-06T21:00:12.860Z,14.30
2019-05-06T21:02:42.499Z,14.20
2019-05-06T21:05:13.933Z,14.10
2019-05-06T21:07:43.264Z,14.00
2019-05-06T21:10:12.761Z,13.90
2019-05-06T21:12:42.235Z,13.70
2019-05-06T21:15:13.320Z,13.50
2019-05-06T21:17:42.048Z,13.40
2019-05-06T21:20:11.418Z,13.20
2019-05-06T21:22:40.074Z,13.30
2019-05-06T21:25:09.161Z,13.20
2019-05-06T21:27:37.983Z,13.10
2019-05-06T21:30:07.671Z,13.30
2019-05-06T21:32:36.399Z,13.40
2019-05-06T21:35:05.810Z,13.50
2019-05-06T21:37:34.466Z,13.50
2019-05-06T21:40:03.201Z,13.60
2019-05-06T21:42:32.559Z,13.60
2019-05-06T21:45:03.238Z,13.60
2019-05-06T21:47:32.528Z,13.50
2019-05-06T21:50:01.356Z,13.40
2019-05-06T21:52:39.303Z,13.40
2019-05-06T21:55:02.411Z,13.40
2019-05-06T21:57:30.594Z,13.40
2019-05-06T21:59:59.254Z,13.40
2019-05-06T22:02:28.106Z,13.30
2019-05-06T22:04:56.841Z,13.30
2019-05-06T22:07:25.559Z,13.30
2019-05-06T22:09:54.217Z,13.10
2019-05-06T22:12:24.525Z,13.00
2019-05-06T22:14:53.242Z,13.10
2019-05-06T22:17:22.557Z,13.10
2019-05-06T22:19:52.400Z,13.10
2019-05-06T22:22:23.426Z,13.10
2019-05-06T22:24:57.360Z,13.00
2019-05-06T22:27:22.648Z,12.90
2019-05-06T22:29:52.262Z,12.80
2019-05-06T22:32:23.128Z,12.80
2019-05-06T22:34:51.576Z,12.70
2019-05-06T22:37:22.014Z,12.70
2019-05-06T22:39:52.545Z,12.80
2019-05-06T22:42:22.592Z,12.70
2019-05-06T22:44:51.221Z,12.70
2019-05-06T22:47:19.945Z,12.70
2019-05-06T22:49:48.738Z,12.60
2019-05-06T22:52:17.386Z,12.50
2019-05-06T22:54:46.073Z,12.50
2019-05-06T22:57:14.722Z,12.40
2019-05-06T22:59:43.366Z,12.50
2019-05-06T23:02:16.512Z,12.50
2019-05-06T23:04:46.807Z,12.60
2019-05-06T23:07:16.469Z,12.60
2019-05-06T23:09:45.124Z,12.60
2019-05-06T23:12:13.778Z,12.50
2019-05-06T23:14:42.496Z,12.50
2019-05-06T23:17:12.709Z,12.50
2019-05-06T23:19:42.896Z,12.40
2019-05-06T23:22:12.222Z,12.30
2019-05-06T23:24:40.885Z,12.30
2019-05-06T23:27:09.534Z,12.30
2019-05-06T23:29:38.190Z,12.30
2019-05-06T23:32:06.910Z,12.30
2019-05-06T23:34:35.575Z,12.20
2019-05-06T23:37:07.297Z,12.30
2019-05-06T23:40:14.121Z,12.40
2019-05-06T23:43:19.059Z,12.40
2019-05-06T23:46:05.378Z,12.40
2019-05-06T23:49:10.577Z,12.50
2019-05-06T23:52:15.746Z,12.60
2019-05-06T23:55:22.072Z,12.50
2019-05-06T23:57:49.778Z,12.30
